Time;durP1;ratioP1;P1;durP2;ratioP2;P2;SDS_P1;SDS_P2;PMS_P1;PMS_P2;Temp;Humidity;BMP_temperature;BMP_pressure;BME280_temperature;BME280_humidity;BME280_pressure;Samples;Min_cycle;Max_cycle;Signal;HPM_P1;HPM_P2
2023/11/06 00:00:56;;;;;;;4.25;1.27;;;;;;;11.10;83.58;98363.91;10213462;28;20451;-71
2023/11/06 00:05:58;;;;;;;4.22;0.77;;;;;;;11.10;83.87;98375.38;10225999;28;20042;-70
2023/11/06 00:11:00;;;;;;;2.08;0.60;;;;;;;11.15;84.45;98388.16;10223298;28;20476;-69
2023/11/06 00:16:02;;;;;;;3.80;1.15;;;;;;;11.11;85.80;98397.53;10187485;28;20168;-69
2023/11/06 00:21:19;;;;;;;3.95;1.25;;;;;;;11.13;86.09;98393.66;10209775;28;20050;-69
2023/11/06 00:26:21;;;;;;;4.10;1.20;;;;;;;11.20;86.03;98401.81;10220192;28;20059;-69
2023/11/06 00:31:27;;;;;;;4.63;0.93;;;;;;;11.24;85.98;98408.44;10229829;28;20053;-69
2023/11/06 00:36:29;;;;;;;5.05;1.05;;;;;;;11.27;85.67;98410.78;10223885;28;20515;-70
2023/11/06 00:41:30;;;;;;;4.63;1.20;;;;;;;11.23;85.55;98420.09;10219090;28;20047;-72
2023/11/06 00:46:33;;;;;;;4.30;1.48;;;;;;;11.18;85.86;98425.09;10230370;28;20404;-69
2023/11/06 00:51:35;;;;;;;2.83;0.75;;;;;;;11.24;86.01;98431.56;10229912;28;20055;-69
2023/11/06 00:56:36;;;;;;;3.45;1.08;;;;;;;11.25;85.75;98436.72;10210021;28;20055;-71
2023/11/06 01:01:38;;;;;;;5.63;1.83;;;;;;;11.28;85.53;98444.38;10222075;28;20276;-70
2023/11/06 01:06:42;;;;;;;2.87;1.00;;;;;;;11.37;85.58;98457.69;10235784;28;20070;-70
2023/11/06 01:11:49;;;;;;;4.13;1.77;;;;;;;11.39;85.26;98456.47;10237057;28;20310;-70
2023/11/06 01:16:50;;;;;;;3.22;1.00;;;;;;;11.32;85.46;98448.38;10232878;28;20047;-70
2023/11/06 01:21:55;;;;;;;3.65;1.10;;;;;;;11.23;86.11;98457.41;10231041;28;20050;-70
2023/11/06 01:26:57;;;;;;;3.38;1.05;;;;;;;11.26;86.69;98457.03;10229146;28;20078;-70
2023/11/06 01:32:03;;;;;;;3.78;0.80;;;;;;;11.37;86.64;98465.66;10230530;28;20046;-70
2023/11/06 01:37:04;;;;;;;4.93;1.30;;;;;;;11.39;86.41;98472.47;10234402;28;20289;-70
2023/11/06 01:42:06;;;;;;;4.53;1.30;;;;;;;11.39;86.44;98468.97;10226401;28;20053;-70
2023/11/06 01:47:09;;;;;;;4.40;0.98;;;;;;;11.39;86.54;98479.63;10219262;28;20138;-70
2023/11/06 01:52:15;;;;;;;5.75;1.23;;;;;;;11.41;86.38;98482.94;10226553;28;20512;-71
2023/11/06 01:57:17;;;;;;;3.85;1.10;;;;;;;11.40;86.34;98486.63;10218234;28;20261;-70
2023/11/06 02:02:22;;;;;;;2.63;0.65;;;;;;;11.41;86.59;98489.13;10204893;28;20265;-70
2023/11/06 02:07:24;;;;;;;4.22;1.60;;;;;;;11.42;86.14;98489.94;10201293;28;20068;-70
2023/11/06 02:12:26;;;;;;;4.82;1.30;;;;;;;11.46;85.97;98496.59;10210989;28;20081;-70
2023/11/06 02:17:29;;;;;;;4.13;1.23;;;;;;;11.54;85.92;98509.88;10228693;28;20509;-71
2023/11/06 02:22:32;;;;;;;5.63;1.30;;;;;;;11.51;85.68;98499.56;10218320;28;20046;-70
2023/11/06 02:27:37;;;;;;;5.40;1.00;;;;;;;11.49;85.88;98514.91;10227313;28;20046;-70
2023/11/06 02:32:39;;;;;;;;;;;;;;;11.48;85.59;98507.91;10220545;28;20268;-70
2023/11/06 02:37:40;;;;;;;4.88;0.93;;;;;;;11.48;85.83;98516.75;10219478;28;20778;-70
2023/11/06 02:42:42;;;;;;;4.45;1.17;;;;;;;11.48;85.56;98534.56;10214961;28;20312;-70
2023/11/06 02:47:44;;;;;;;3.58;1.15;;;;;;;11.49;85.77;98530.91;10230105;28;20051;-70
2023/11/06 02:52:46;;;;;;;5.45;1.00;;;;;;;11.47;85.53;98540.91;10241696;28;20085;-70
2023/11/06 02:57:48;;;;;;;2.55;0.77;;;;;;;11.48;85.05;98542.53;10232908;28;20051;-70
2023/11/06 03:02:50;;;;;;;4.07;0.88;;;;;;;11.52;84.87;98562.53;10234757;28;20066;-72
2023/11/06 03:07:54;;;;;;;6.72;1.48;;;;;;;11.52;84.54;98553.72;10227757;28;20050;-70
2023/11/06 03:12:57;;;;;;;4.38;1.10;;;;;;;11.48;83.69;98558.53;10228838;28;20685;-70
2023/11/06 03:18:00;;;;;;;4.60;0.95;;;;;;;11.48;84.00;98566.53;10225533;28;20051;-70
2023/11/06 03:23:02;;;;;;;7.25;1.17;;;;;;;11.54;83.99;98579.16;10221815;28;20054;-70
2023/11/06 03:28:04;;;;;;;2.72;0.88;;;;;;;11.53;83.78;98582.84;10230961;28;20050;-70
2023/11/06 03:33:05;;;;;;;5.90;1.15;;;;;;;11.49;83.46;98584.19;10233403;28;20500;-70
2023/11/06 03:38:10;;;;;;;3.05;1.50;;;;;;;11.46;83.18;98595.19;10217832;28;20049;-74
2023/11/06 03:43:11;;;;;;;2.10;0.70;;;;;;;11.43;83.59;98598.19;10220885;28;20563;-70
2023/11/06 03:48:13;;;;;;;2.17;0.77;;;;;;;11.42;83.58;98607.16;10219760;28;20058;-70
2023/11/06 03:53:16;;;;;;;2.80;0.60;;;;;;;11.44;83.45;98613.16;10219616;28;20058;-68
2023/11/06 03:58:18;;;;;;;5.05;0.88;;;;;;;11.41;83.88;98630.31;10229166;28;20702;-69
2023/11/06 04:03:20;;;;;;;3.90;0.60;;;;;;;11.39;84.31;98628.81;10212019;28;20605;-70
2023/11/06 04:08:22;;;;;;;5.72;0.88;;;;;;;11.38;84.57;98632.47;10212739;28;20062;-69
2023/11/06 04:13:24;;;;;;;3.72;0.90;;;;;;;11.39;84.50;98647.47;10220647;28;20273;-70
2023/11/06 04:18:26;;;;;;;2.85;0.55;;;;;;;11.35;84.76;98662.13;10227591;28;20090;-71
2023/11/06 04:23:28;;;;;;;4.78;1.00;;;;;;;11.32;85.24;98666.78;10220517;28;20335;-70
2023/11/06 04:28:31;;;;;;;2.40;1.00;;;;;;;11.36;85.14;98671.78;10222161;28;20419;-70
2023/11/06 04:33:32;;;;;;;3.15;0.50;;;;;;;11.34;84.56;98679.13;10243216;28;20082;-70
2023/11/06 04:38:34;;;;;;;4.50;0.57;;;;;;;11.29;85.11;98693.75;10231224;28;20050;-70
2023/11/06 04:43:37;;;;;;;2.90;0.80;;;;;;;11.25;84.97;98681.78;10231594;28;20410;-70
2023/11/06 04:48:41;;;;;;;3.75;0.85;;;;;;;11.23;84.90;98693.59;10228065;28;20055;-71
2023/11/06 04:53:43;;;;;;;4.55;0.93;;;;;;;11.26;84.98;98698.56;10214182;28;20047;-70
2023/11/06 04:58:44;;;;;;;2.60;0.73;;;;;;;11.17;84.90;98707.56;10229920;28;20087;-70
2023/11/06 05:03:46;;;;;;;4.20;0.60;;;;;;;11.18;84.63;98720.72;10230464;28;20592;-71
2023/11/06 05:08:48;;;;;;;2.42;0.40;;;;;;;11.19;84.81;98725.06;10201542;28;20452;-70
2023/11/06 05:13:51;;;;;;;2.50;0.55;;;;;;;11.17;84.69;98729.72;10228635;28;20043;-70
2023/11/06 05:18:53;;;;;;;3.65;1.70;;;;;;;11.16;84.62;98728.03;10246458;28;20450;-71
2023/11/06 05:23:56;;;;;;;3.00;0.47;;;;;;;11.13;84.79;98728.38;10214537;28;20125;-71
2023/11/06 05:29:01;;;;;;;3.03;0.60;;;;;;;11.15;84.64;98734.34;10234384;28;20109;-71
2023/11/06 05:34:03;;;;;;;2.95;0.60;;;;;;;11.17;84.74;98747.50;10186339;28;20294;-70
2023/11/06 05:39:05;;;;;;;3.30;0.60;;;;;;;11.19;84.43;98754.34;10216038;28;20141;-70
2023/11/06 05:44:08;;;;;;;4.40;1.00;;;;;;;11.16;84.29;98757.34;10213478;28;20051;-69
2023/11/06 05:49:11;;;;;;;8.03;1.40;;;;;;;11.14;84.03;98776.16;10218810;28;20661;-69
2023/11/06 05:54:15;;;;;;;5.28;0.93;;;;;;;11.14;83.81;98770.00;10212304;28;20050;-71
2023/11/06 05:59:18;;;;;;;3.77;1.40;;;;;;;11.03;84.03;98780.94;10220821;28;20059;-69
2023/11/06 06:04:21;;;;;;;6.57;0.82;;;;;;;11.04;84.07;98794.09;10225636;28;20431;-70
2023/11/06 06:09:22;;;;;;;3.90;1.08;;;;;;;11.03;83.65;98796.91;10225200;28;20070;-69
2023/11/06 06:14:24;;;;;;;3.33;0.80;;;;;;;11.02;83.67;98803.22;10215973;28;21347;-70
2023/11/06 06:19:26;;;;;;;4.85;1.02;;;;;;;11.00;83.76;98805.22;10199997;28;20066;-70
2023/11/06 06:24:28;;;;;;;3.67;0.90;;;;;;;10.99;83.44;98820.38;10208459;28;20070;-69
2023/11/06 06:29:29;;;;;;;3.90;1.20;;;;;;;10.98;83.67;98826.69;10193751;28;20043;-69
2023/11/06 06:34:31;;;;;;;5.03;0.95;;;;;;;10.97;83.24;98830.34;10225923;28;20062;-69
2023/11/06 06:39:33;;;;;;;3.95;1.00;;;;;;;10.99;83.24;98827.53;10208461;28;20047;-70
2023/11/06 06:44:37;;;;;;;6.03;1.40;;;;;;;10.98;83.71;98829.34;10188873;28;20059;-69
2023/11/06 06:49:40;;;;;;;5.07;1.10;;;;;;;10.93;83.70;98840.50;10206536;28;20058;-69
2023/11/06 06:54:43;;;;;;;5.20;1.30;;;;;;;10.89;83.53;98852.44;10203727;28;20055;-67
2023/11/06 06:59:45;;;;;;;7.15;1.33;;;;;;;10.88;83.44;98850.78;10202675;28;20562;-69
2023/11/06 07:04:47;;;;;;;6.90;1.75;;;;;;;10.94;81.85;98863.47;10206690;28;20059;-67
2023/11/06 07:09:52;;;;;;;6.95;1.85;;;;;;;10.93;82.54;98869.78;10209378;28;20141;-71
2023/11/06 07:14:54;;;;;;;5.22;1.63;;;;;;;10.93;81.98;98895.56;10209795;28;20919;-61
2023/11/06 07:19:57;;;;;;;3.97;1.33;;;;;;;10.95;81.66;98894.41;10205646;28;20058;-67
2023/11/06 07:25:00;;;;;;;5.13;1.30;;;;;;;10.96;81.59;98889.94;10209047;28;20238;-67
2023/11/06 07:30:04;;;;;;;5.32;1.63;;;;;;;11.00;81.17;98904.56;10183962;28;20058;-65
2023/11/06 07:35:06;;;;;;;6.07;1.80;;;;;;;11.05;80.60;98904.94;10213979;28;20138;-64
2023/11/06 07:40:09;;;;;;;6.90;2.15;;;;;;;11.14;80.06;98919.13;10208164;28;20736;-64
2023/11/06 07:45:12;;;;;;;3.60;1.15;;;;;;;11.19;79.21;98921.31;10208769;28;20087;-64
2023/11/06 07:50:15;;;;;;;7.18;1.88;;;;;;;11.34;79.25;98937.53;10218383;28;20047;-66
2023/11/06 07:55:16;;;;;;;3.75;1.15;;;;;;;11.42;78.43;98937.53;10203775;28;20050;-66
2023/11/06 08:00:21;;;;;;;5.93;1.88;;;;;;;11.42;77.35;98945.53;10208686;28;20138;-67
2023/11/06 08:05:37;;;;;;;4.20;0.82;;;;;;;11.49;77.42;98976.72;10203428;28;20054;-67
2023/11/06 08:10:39;;;;;;;6.07;1.33;;;;;;;11.46;76.98;98969.03;10217457;28;20112;-64
2023/11/06 08:15:42;;;;;;;7.75;1.50;;;;;;;11.58;76.20;98974.91;10211481;28;20141;-64
2023/11/06 08:20:44;;;;;;;6.05;1.35;;;;;;;11.59;76.05;98987.25;10213736;28;20401;-68
2023/11/06 08:25:47;;;;;;;5.65;1.63;;;;;;;11.51;75.95;98995.19;10197130;28;20058;-68
2023/11/06 08:30:50;;;;;;;6.00;1.77;;;;;;;11.58;76.22;99011.41;10183272;28;20046;-68
2023/11/06 08:35:52;;;;;;;6.72;1.63;;;;;;;11.63;76.21;99014.41;10208310;28;20050;-66
2023/11/06 08:40:54;;;;;;;7.53;1.67;;;;;;;11.73;76.48;99008.97;10208735;28;20648;-69
2023/11/06 08:46:00;;;;;;;5.40;1.27;;;;;;;12.00;75.41;99014.06;10200374;28;20054;-67
2023/11/06 08:51:03;;;;;;;3.63;1.00;;;;;;;12.25;74.98;99029.28;10204519;28;20065;-69
2023/11/06 08:56:05;;;;;;;8.25;1.48;;;;;;;12.46;73.33;99018.97;10216838;28;20045;-68
2023/11/06 09:01:08;;;;;;;8.25;1.35;;;;;;;12.50;72.75;99038.97;10232942;28;20801;-69
2023/11/06 09:06:10;;;;;;;7.20;1.50;;;;;;;12.43;73.28;99042.47;10199676;28;20062;-68
2023/11/06 09:11:13;;;;;;;9.27;1.60;;;;;;;12.36;73.50;99048.47;10210746;28;20050;-67
2023/11/06 09:16:15;;;;;;;5.18;2.17;;;;;;;12.22;74.23;99051.81;10211231;28;20093;-66
2023/11/06 09:21:17;;;;;;;5.35;1.50;;;;;;;12.13;74.72;99058.09;10192492;28;20619;-66
2023/11/06 09:26:19;;;;;;;7.32;1.25;;;;;;;12.09;75.18;99067.44;10209922;28;20129;-64
2023/11/06 09:31:21;;;;;;;6.03;1.63;;;;;;;12.13;75.59;99069.63;10207079;28;20063;-68
2023/11/06 09:36:23;;;;;;;6.85;2.22;;;;;;;12.16;75.54;99079.09;10187846;28;20519;-69
2023/11/06 09:41:27;;;;;;;6.00;1.50;;;;;;;12.29;75.25;99092.00;10228962;28;20073;-66
2023/11/06 09:46:30;;;;;;;6.60;1.88;;;;;;;12.53;73.89;99086.69;10213633;28;20582;-66
2023/11/06 09:51:36;;;;;;;6.95;2.17;;;;;;;12.59;73.95;99087.88;10206423;28;20054;-65
2023/11/06 09:56:45;;;;;;;5.55;2.08;;;;;;;12.75;73.08;99084.38;10206685;28;20055;-54
2023/11/06 10:01:49;;;;;;;3.70;1.10;;;;;;;12.89;71.63;99096.22;10173055;28;20797;-69
2023/11/06 10:06:51;;;;;;;;;;;;;;;12.88;70.69;99090.06;10201273;28;20108;-70
2023/11/06 10:11:57;;;;;;;3.70;1.38;;;;;;;13.02;71.69;99101.09;10171125;28;19981;-68
2023/11/06 10:17:03;;;;;;;5.97;1.60;;;;;;;13.04;70.21;99099.91;10180051;28;20454;-68
2023/11/06 10:22:13;;;;;;;4.40;2.23;;;;;;;13.06;69.31;99097.06;10213970;28;20058;-68
2023/11/06 10:27:26;;;;;;;6.75;1.67;;;;;;;13.55;68.08;99096.19;10205849;28;20082;-70
2023/11/06 10:32:27;;;;;;;4.13;1.23;;;;;;;13.82;65.11;99096.78;10188224;28;20067;-66
2023/11/06 10:37:38;;;;;;;6.55;1.63;;;;;;;13.96;64.37;99090.69;10183082;28;20058;-69
2023/11/06 10:42:43;;;;;;;4.43;1.10;;;;;;;14.31;62.98;99080.50;10187872;28;20074;-65
2023/11/06 10:47:54;;;;;;;3.33;1.38;;;;;;;15.06;60.74;99072.75;10198700;28;21113;-66
2023/11/06 10:53:06;;;;;;;3.10;1.17;;;;;;;14.84;60.76;99081.50;10205133;28;20095;-63
2023/11/06 10:58:09;;;;;;;5.65;1.35;;;;;;;15.25;59.98;99079.47;10194227;28;20087;-67
2023/11/06 11:03:14;;;;;;;4.78;1.25;;;;;;;15.83;56.54;99072.50;10207452;28;20520;-66
2023/11/06 11:08:19;;;;;;;6.78;1.88;;;;;;;15.88;56.63;99079.97;10211942;28;20586;-69
2023/11/06 11:13:21;;;;;;;5.00;1.40;;;;;;;15.40;56.87;99074.94;10156380;28;20046;-69
2023/11/06 11:18:29;;;;;;;7.03;1.55;;;;;;;14.77;58.91;99075.22;10186606;28;20075;-67
2023/11/06 11:23:45;;;;;;;6.25;1.00;;;;;;;14.66;59.14;99070.25;10180317;28;20245;-67
2023/11/06 11:28:58;;;;;;;7.30;1.52;;;;;;;14.45;59.73;99071.69;10176630;28;20078;-66
2023/11/06 11:34:00;;;;;;;4.55;1.70;;;;;;;14.65;59.88;99061.41;10191041;28;20546;-68
2023/11/06 11:39:13;;;;;;;8.57;1.83;;;;;;;15.34;58.51;99054.25;10161143;28;20427;-66
2023/11/06 11:44:18;;;;;;;6.47;1.77;;;;;;;16.17;54.78;99044.22;10209993;28;20075;-66
2023/11/06 11:49:39;;;;;;;5.13;1.00;;;;;;;17.11;53.11;99050.47;10219015;28;20675;-67
2023/11/06 11:54:45;;;;;;;6.68;0.95;;;;;;;17.40;49.45;99057.53;10217345;28;20055;-66
2023/11/06 11:59:52;;;;;;;3.00;0.70;;;;;;;17.81;48.27;99056.72;10202629;28;20042;-66
2023/11/06 12:04:57;;;;;;;3.70;1.02;;;;;;;17.60;49.39;99052.25;10183908;28;20057;-64
2023/11/06 12:10:01;;;;;;;2.97;1.23;;;;;;;17.75;49.22;99051.31;10203926;28;20055;-66
2023/11/06 12:15:10;;;;;;;4.05;0.90;;;;;;;16.89;51.79;99058.59;10206778;28;20144;-69
2023/11/06 12:20:15;;;;;;;4.88;1.30;;;;;;;16.07;52.24;99059.78;10199064;28;20535;-68
2023/11/06 12:25:27;;;;;;;5.05;0.90;;;;;;;15.80;53.14;99048.72;10198070;28;20272;-66
2023/11/06 12:30:29;;;;;;;2.53;0.98;;;;;;;17.65;49.34;99047.13;10196826;28;20055;-68
2023/11/06 12:35:37;;;;;;;4.32;0.80;;;;;;;18.88;45.80;99045.44;10170863;28;20058;-64
2023/11/06 12:40:43;;;;;;;5.75;1.00;;;;;;;19.70;43.32;99054.03;10223717;28;20117;-66
2023/11/06 12:51:10;;;;;;;2.95;0.70;;;;;;;17.35;48.31;99040.31;10378378;23;20050;-67
2023/11/06 12:56:14;;;;;;;4.25;0.90;;;;;;;16.08;52.54;99013.16;10279667;28;20641;-65
2023/11/06 13:01:23;;;;;;;2.80;0.70;;;;;;;15.70;54.83;99032.03;10257274;28;20058;-67
2023/11/06 13:06:24;;;;;;;2.35;0.70;;;;;;;15.65;55.63;99027.25;10264194;28;20125;-68
2023/11/06 13:11:26;;;;;;;5.38;1.02;;;;;;;15.31;56.89;99030.47;10277123;28;20066;-70
2023/11/06 13:16:38;;;;;;;4.63;1.00;;;;;;;15.23;58.06;99031.41;10255063;28;20066;-68
2023/11/06 13:21:40;;;;;;;3.03;0.65;;;;;;;15.27;58.66;99023.84;10259235;28;20063;-65
2023/11/06 13:26:42;;;;;;;2.83;0.60;;;;;;;14.73;61.20;99020.31;10255380;28;20056;-69
2023/11/06 13:31:45;;;;;;;4.05;0.73;;;;;;;14.50;63.75;99018.47;10278438;28;20139;-75
2023/11/06 13:36:49;;;;;;;5.20;1.05;;;;;;;14.31;68.22;99037.69;10279724;28;20216;-69
2023/11/06 13:41:54;;;;;;;2.00;0.70;;;;;;;14.17;71.96;99041.91;10280950;28;20057;-66
2023/11/06 13:46:57;;;;;;;5.25;1.55;;;;;;;13.95;74.11;99048.91;10244825;28;20054;-68
2023/11/06 13:52:07;;;;;;;4.72;1.40;;;;;;;13.88;76.89;99050.63;10262244;28;20159;-67
2023/11/06 13:57:12;;;;;;;5.00;1.40;;;;;;;13.70;76.12;99042.84;10267064;28;20132;-70
2023/11/06 14:02:19;;;;;;;3.63;0.90;;;;;;;13.56;78.35;99045.22;10277643;28;20062;-66
2023/11/06 14:07:21;;;;;;;2.05;0.80;;;;;;;13.62;79.59;99067.78;10273210;28;20524;-69
2023/11/06 14:12:23;;;;;;;5.53;0.98;;;;;;;13.43;81.34;99061.78;10279941;28;20523;-68
2023/11/06 14:17:27;;;;;;;4.65;0.80;;;;;;;13.41;82.88;99066.47;10276358;28;20656;-67
2023/11/06 14:22:29;;;;;;;3.63;1.10;;;;;;;13.36;84.93;99068.00;10273006;28;21271;-67
2023/11/06 14:27:32;;;;;;;6.88;1.08;;;;;;;13.23;86.95;99057.81;10286847;28;20082;-66
2023/11/06 14:32:35;;;;;;;2.97;0.75;;;;;;;13.22;86.90;99081.00;10289147;28;20042;-69
2023/11/06 14:37:41;;;;;;;3.47;1.10;;;;;;;13.34;88.34;99059.31;10262290;28;20409;-72
2023/11/06 14:42:47;;;;;;;3.40;1.27;;;;;;;13.30;88.80;99080.19;10249058;23;20042;-71
2023/11/06 14:47:49;;;;;;;1.55;0.55;;;;;;;13.32;88.09;99078.16;10242420;28;20065;-67
2023/11/06 14:52:51;;;;;;;3.45;1.00;;;;;;;13.32;87.29;99075.50;10254930;28;20062;-66
2023/11/06 14:57:56;;;;;;;2.25;0.80;;;;;;;13.29;86.13;99083.84;10240965;28;20133;-65
2023/11/06 15:02:58;;;;;;;2.35;0.85;;;;;;;13.18;86.73;99086.88;10255360;28;20153;-65
2023/11/06 15:08:00;;;;;;;4.35;0.88;;;;;;;13.12;86.06;99079.53;10252183;28;20161;-66
2023/11/06 15:13:01;;;;;;;2.42;0.80;;;;;;;12.83;85.65;99054.19;10250935;28;20051;-66
2023/11/06 15:18:05;;;;;;;4.00;0.93;;;;;;;12.89;85.53;99080.22;10256149;28;20058;-65
2023/11/06 15:23:07;;;;;;;2.65;0.77;;;;;;;12.78;86.21;99080.56;10255811;28;20560;-65
2023/11/06 15:28:12;;;;;;;;;;;;;;;12.65;86.48;99079.19;10232211;28;21199;-65
2023/11/06 15:33:13;;;;;;;1.98;0.80;;;;;;;12.59;87.75;99093.22;10256351;28;20003;-64
2023/11/06 15:38:15;;;;;;;4.00;0.70;;;;;;;12.45;88.49;99086.69;10245945;28;20091;-65
2023/11/06 15:43:17;;;;;;;2.33;0.65;;;;;;;12.34;89.35;99109.19;10238292;28;20513;-65
2023/11/06 15:48:18;;;;;;;2.03;1.23;;;;;;;12.38;88.70;99107.88;10190937;28;20634;-66
2023/11/06 15:53:20;;;;;;;3.08;0.60;;;;;;;12.33;86.81;99112.84;10166975;28;20058;-62
2023/11/06 15:58:22;;;;;;;2.00;0.77;;;;;;;12.26;86.72;99095.81;10178227;28;20728;-62
2023/11/06 16:03:26;;;;;;;1.98;0.85;;;;;;;12.46;86.98;99108.88;10190905;28;20059;-62
2023/11/06 16:08:28;;;;;;;2.47;0.98;;;;;;;12.38;86.05;99113.22;10174786;28;20083;-62
2023/11/06 16:13:29;;;;;;;2.05;0.70;;;;;;;12.48;85.66;99125.56;10173724;28;20098;-63
2023/11/06 16:18:31;;;;;;;3.63;1.00;;;;;;;12.45;86.46;99140.06;10175950;28;20059;-63
2023/11/06 16:23:39;;;;;;;1.40;0.88;;;;;;;12.42;87.95;99147.56;10164165;28;20056;-65
2023/11/06 16:28:42;;;;;;;2.58;0.57;;;;;;;12.41;87.93;99153.91;10173462;28;20059;-64
2023/11/06 16:33:43;;;;;;;2.15;0.60;;;;;;;12.39;87.44;99159.41;10175254;28;20759;-64
2023/11/06 16:38:45;;;;;;;1.30;0.75;;;;;;;12.38;87.94;99158.56;10177554;28;20171;-63
2023/11/06 16:43:46;;;;;;;1.85;0.73;;;;;;;12.36;87.90;99165.88;10180964;28;20555;-63
2023/11/06 16:55:10;;;;;;;4.70;1.85;;;;;;;12.25;88.14;99181.34;10576543;23;20047;-66
2023/11/06 17:00:13;;;;;;;2.88;0.75;;;;;;;12.19;87.33;99185.53;10193329;28;20055;-65
2023/11/06 17:05:15;;;;;;;2.30;0.52;;;;;;;12.06;86.85;99185.94;10153902;28;20199;-64
2023/11/06 17:10:18;;;;;;;1.63;0.70;;;;;;;11.99;88.27;99192.91;10156897;28;20059;-65
2023/11/06 17:15:19;;;;;;;2.25;0.80;;;;;;;11.92;87.29;99200.69;10142160;28;20043;-66
2023/11/06 17:20:23;;;;;;;2.13;0.60;;;;;;;11.88;85.57;99215.31;10167208;28;20541;-64
2023/11/06 17:25:25;;;;;;;2.45;0.80;;;;;;;11.80;84.65;99217.91;10188265;29;20050;-65
2023/11/06 17:30:26;;;;;;;1.80;0.77;;;;;;;11.78;84.59;99225.25;10130950;29;21490;-64
2023/11/06 17:35:29;;;;;;;2.10;0.82;;;;;;;11.64;83.54;99219.47;10195713;28;20286;-65
2023/11/06 17:40:31;;;;;;;1.80;0.50;;;;;;;11.55;82.48;99236.41;10184285;28;20062;-64
2023/11/06 17:45:36;;;;;;;0.80;0.30;;;;;;;11.53;82.57;99240.22;10195055;28;20059;-65
2023/11/06 17:50:39;;;;;;;5.38;0.50;;;;;;;11.51;81.29;99259.03;10164755;28;20538;-64
2023/11/06 17:55:41;;;;;;;0.95;0.43;;;;;;;11.49;80.81;99269.00;10164652;28;20051;-65
2023/11/06 18:00:43;;;;;;;1.23;0.38;;;;;;;11.46;80.75;99278.16;10185356;28;20101;-64
2023/11/06 18:05:44;;;;;;;5.13;0.80;;;;;;;11.44;81.40;99303.25;10184699;28;20272;-65
2023/11/06 18:10:46;;;;;;;1.10;0.52;;;;;;;11.40;81.54;99313.41;10188950;28;20062;-65
2023/11/06 18:15:47;;;;;;;2.22;0.70;;;;;;;11.37;81.75;99307.53;10183208;28;20455;-66
2023/11/06 18:20:49;;;;;;;1.38;0.50;;;;;;;11.38;82.27;99315.38;10195329;28;20677;-64
2023/11/06 18:25:51;;;;;;;1.58;0.38;;;;;;;11.37;82.04;99328.84;10173649;28;20146;-66
2023/11/06 18:30:53;;;;;;;0.90;0.50;;;;;;;11.35;82.28;99341.47;10178507;28;20217;-64
2023/11/06 18:35:55;;;;;;;1.15;0.40;;;;;;;11.30;82.91;99344.59;10208289;23;20046;-65
2023/11/06 18:40:56;;;;;;;1.52;0.50;;;;;;;11.26;83.32;99349.41;10221475;28;20141;-63
2023/11/06 18:45:58;;;;;;;2.10;0.70;;;;;;;11.29;83.78;99357.09;10182398;28;21483;-65
2023/11/06 18:51:00;;;;;;;1.30;0.68;;;;;;;11.10;84.51;99350.03;10166822;28;20632;-65
2023/11/06 18:56:01;;;;;;;1.23;0.70;;;;;;;11.09;85.09;99367.03;10179092;28;20894;-65
2023/11/06 19:01:04;;;;;;;3.28;0.80;;;;;;;11.13;85.30;99367.56;10184790;28;20052;-65
2023/11/06 19:06:06;;;;;;;3.00;0.52;;;;;;;11.16;85.88;99375.25;10181918;28;20055;-66
2023/11/06 19:11:22;;;;;;;1.48;0.50;;;;;;;11.10;86.18;99386.50;10157734;28;20047;-66
2023/11/06 19:16:26;;;;;;;2.53;0.63;;;;;;;11.04;87.14;99392.44;10178353;28;20651;-65
2023/11/06 19:21:28;;;;;;;1.35;0.60;;;;;;;11.01;87.48;99395.38;10194837;28;20067;-66
2023/11/06 19:26:31;;;;;;;1.20;0.80;;;;;;;11.00;88.13;99404.34;10191839;28;20696;-65
2023/11/06 19:31:32;;;;;;;3.42;1.20;;;;;;;11.09;87.87;99416.78;10182884;28;20137;-64
2023/11/06 19:36:34;;;;;;;1.42;1.00;;;;;;;11.04;88.45;99424.38;10180250;28;20059;-65
2023/11/06 19:41:38;;;;;;;1.98;1.15;;;;;;;11.02;88.93;99436.97;10181750;28;20055;-65
2023/11/06 19:46:41;;;;;;;3.20;0.95;;;;;;;11.05;88.54;99432.22;10177986;28;20072;-64
2023/11/06 19:51:43;;;;;;;2.22;1.20;;;;;;;10.93;89.01;99428.91;10151048;28;20122;-64
2023/11/06 19:56:45;;;;;;;2.70;1.30;;;;;;;10.88;89.35;99431.16;10173668;28;20044;-66
2023/11/06 20:01:46;;;;;;;1.83;0.80;;;;;;;10.85;89.43;99435.94;10191669;28;20051;-66
2023/11/06 20:06:48;;;;;;;3.53;1.20;;;;;;;10.90;89.25;99439.00;10188007;28;20223;-65
2023/11/06 20:11:50;;;;;;;1.98;0.88;;;;;;;10.81;89.22;99435.41;10172869;28;20228;-66
2023/11/06 20:16:52;;;;;;;1.25;0.90;;;;;;;10.82;89.00;99430.91;10186121;28;20086;-62
2023/11/06 20:21:56;;;;;;;1.52;1.25;;;;;;;10.84;89.27;99439.56;10187984;28;20067;-66
2023/11/06 20:27:02;;;;;;;1.95;0.77;;;;;;;10.83;88.94;99454.72;10190508;28;20047;-66
2023/11/06 20:32:05;;;;;;;1.92;0.70;;;;;;;10.79;89.02;99453.31;10190518;28;20058;-64
2023/11/06 20:37:09;;;;;;;1.65;0.80;;;;;;;10.82;89.05;99474.31;10174019;28;20056;-66
2023/11/06 20:42:11;;;;;;;1.65;1.00;;;;;;;10.81;89.41;99478.00;10190836;28;20250;-65
2023/11/06 20:47:17;;;;;;;2.83;0.80;;;;;;;10.81;90.99;99472.66;10184381;28;20197;-65
2023/11/06 20:52:19;;;;;;;3.30;1.25;;;;;;;10.87;91.70;99474.75;10202845;28;20055;-64
2023/11/06 20:57:24;;;;;;;3.05;1.30;;;;;;;10.82;92.34;99474.31;10203331;28;20078;-64
2023/11/06 21:02:25;;;;;;;3.35;1.27;;;;;;;10.75;93.03;99467.94;10215700;28;20744;-65
2023/11/06 21:07:27;;;;;;;3.08;1.20;;;;;;;10.72;93.02;99476.16;10198943;28;20058;-64
2023/11/06 21:12:28;;;;;;;3.22;1.35;;;;;;;10.67;92.94;99476.59;10200166;28;20047;-64
2023/11/06 21:17:30;;;;;;;3.28;1.60;;;;;;;10.67;92.86;99483.75;10214760;28;20047;-65
2023/11/06 21:22:32;;;;;;;2.63;1.02;;;;;;;10.70;92.66;99486.13;10203845;28;20198;-64
2023/11/06 21:27:33;;;;;;;3.45;1.02;;;;;;;10.67;92.52;99483.75;10205291;28;20127;-65
2023/11/06 21:32:35;;;;;;;1.80;1.02;;;;;;;10.76;92.27;99506.84;10207696;28;20043;-65
2023/11/06 21:37:37;;;;;;;1.88;1.10;;;;;;;10.75;92.08;99498.03;10203617;28;20649;-66
2023/11/06 21:42:39;;;;;;;3.13;1.35;;;;;;;10.70;92.17;99497.59;10201732;28;20545;-62
2023/11/06 21:47:41;;;;;;;2.92;1.08;;;;;;;10.64;92.45;99500.00;10202466;28;20055;-64
2023/11/06 21:52:43;;;;;;;2.70;0.85;;;;;;;10.69;92.41;99511.06;10206213;28;20654;-64
2023/11/06 21:57:47;;;;;;;3.05;1.10;;;;;;;10.70;92.08;99518.06;10212507;28;20137;-65
2023/11/06 22:02:48;;;;;;;2.78;1.17;;;;;;;10.68;92.12;99514.72;10227591;28;20051;-64
2023/11/06 22:07:50;;;;;;;2.25;0.65;;;;;;;10.67;91.96;99521.03;10221269;28;20424;-65
2023/11/06 22:12:51;;;;;;;2.65;1.00;;;;;;;10.53;92.13;99520.47;10212692;28;20059;-65
2023/11/06 22:17:53;;;;;;;2.45;1.13;;;;;;;10.46;93.01;99531.81;10214404;28;20052;-65
2023/11/06 22:22:56;;;;;;;2.20;1.13;;;;;;;10.44;92.92;99538.13;10211408;28;20061;-66
2023/11/06 22:27:58;;;;;;;2.17;1.00;;;;;;;10.47;92.95;99544.16;10203462;28;20067;-65
2023/11/06 22:33:00;;;;;;;2.28;0.80;;;;;;;10.40;92.70;99550.03;10202133;28;20061;-63
2023/11/06 22:38:01;;;;;;;3.38;0.80;;;;;;;10.47;92.92;99558.28;10208634;28;20734;-65
2023/11/06 22:43:03;;;;;;;3.03;0.80;;;;;;;10.58;92.54;99558.16;10205832;28;20058;-63
2023/11/06 22:48:05;;;;;;;2.35;1.00;;;;;;;10.57;92.20;99561.78;10200628;28;20080;-65
2023/11/06 22:53:07;;;;;;;1.45;0.90;;;;;;;10.49;91.97;99569.63;10205060;28;20268;-65
2023/11/06 22:58:09;;;;;;;4.45;0.80;;;;;;;10.46;91.93;99559.25;10207133;28;20054;-63
2023/11/06 23:03:13;;;;;;;3.95;1.35;;;;;;;10.43;91.63;99565.72;10199810;28;20051;-64
2023/11/06 23:08:14;;;;;;;1.00;0.57;;;;;;;10.53;91.31;99570.19;10201892;28;20110;-65
2023/11/06 23:13:17;;;;;;;1.85;0.80;;;;;;;10.49;90.92;99566.13;10201745;28;20842;-64
2023/11/06 23:18:19;;;;;;;2.38;0.70;;;;;;;10.51;90.78;99580.97;10189605;28;20694;-65
2023/11/06 23:23:22;;;;;;;2.47;0.82;;;;;;;10.46;90.02;99588.53;10206353;28;20278;-63
2023/11/06 23:28:26;;;;;;;2.20;0.77;;;;;;;10.42;90.68;99584.50;10222016;28;20075;-64
2023/11/06 23:33:27;;;;;;;2.13;1.05;;;;;;;10.43;90.65;99586.16;10234431;28;20153;-66
2023/11/06 23:38:29;;;;;;;3.47;0.80;;;;;;;10.42;90.39;99592.47;10208171;28;20063;-64
2023/11/06 23:43:30;;;;;;;1.83;0.68;;;;;;;10.47;90.32;99603.53;10205295;28;20056;-65